Bardesy, United Kingdom
Current Conditions -  °F | °C
As of 11:50 AM on Thursday 29 Jan 2015 (Local Time) from EGOV Reporting Station
Broken Clouds Broken Clouds  
Wind Chill: 25°   Ceiling: 9000
Heat Index: 36°   Visibility: 6mi
Dew Point: 32°   Wind: 21mph
Humidity: 87%   Direction: 270°W
Pressure: 28.94"   Gusts: NA
Location:  52.77°N, 4.78°W
Report Text: EGOV 291150Z 27018KT 9999 FEW010CB BKN090 02/00 Q0980 RESHSN BLU TEMPO 5000 -SHSN BKN020 WHT
Loading
Personal Weather Stations






























Interactive Weather Map New forecast layout! Learn more

10-Day Weather Forecast

Advertisements
Track Severe Weather on mobile